Dickinson, Alabama
Current Conditions -  °F | °C
As of 1:53 PM on Monday 26 Jan 2015 (Local Time) from KGZH Reporting Station
Few Clouds Few Clouds  
Wind Chill: 52°   Ceiling: Unl
Heat Index: 52°   Visibility: 10mi
Dew Point: 36°   Wind: 9mph
Humidity: 54%   Direction: 320°NW
Pressure: 30"   Gusts: 17mph
Location:  31.77°N, 87.71°W
Report Text: KGZH 261953Z AUTO 32008G15KT 290V350 10SM FEW034 11/02 A3000 RMK AO2 SLP157 T01110022
Loading
Personal Weather Stations






























Interactive Weather Map New forecast layout! Learn more

10-Day Weather Forecast

Advertisements
Track Severe Weather on mobile